sensor_id;sensor_type;location;lat;lon;timestamp;pressure;altitude;pressure_sealevel;temperature;humidity
54453;BME280;40363;52.270;10.546;2022-08-16T00:00:24;74689.19;;;-147.06;84.13
54453;BME280;40363;52.270;10.546;2022-08-16T00:02:54;74715.91;;;-147.06;85.31
54453;BME280;40363;52.270;10.546;2022-08-16T00:05:23;74705.63;;;-147.06;84.12
54453;BME280;40363;52.270;10.546;2022-08-16T00:07:50;74689.19;;;-147.06;82.90
54453;BME280;40363;52.270;10.546;2022-08-16T00:10:18;74697.41;;;-147.06;83.40
54453;BME280;40363;52.270;10.546;2022-08-16T00:12:45;74691.25;;;-147.06;83.33
54453;BME280;40363;52.270;10.546;2022-08-16T00:15:14;74697.41;;;-147.06;83.43
54453;BME280;40363;52.270;10.546;2022-08-16T00:17:43;74705.63;;;-147.06;83.42
54453;BME280;40363;52.270;10.546;2022-08-16T00:20:10;74730.28;;;-147.06;85.05
54453;BME280;40363;52.270;10.546;2022-08-16T00:22:39;74736.44;;;-147.06;86.19
54453;BME280;40363;52.270;10.546;2022-08-16T00:25:09;74732.34;;;-147.06;86.12
54453;BME280;40363;52.270;10.546;2022-08-16T00:27:37;74757.00;;;-147.06;87.23
54453;BME280;40363;52.270;10.546;2022-08-16T00:30:07;74759.03;;;-147.06;87.11
54453;BME280;40363;52.270;10.546;2022-08-16T00:32:34;74767.25;;;-147.06;87.00
54453;BME280;40363;52.270;10.546;2022-08-16T00:35:03;74765.19;;;-147.06;87.13
54453;BME280;40363;52.270;10.546;2022-08-16T00:37:29;74759.03;;;-147.06;86.78
54453;BME280;40363;52.270;10.546;2022-08-16T00:39:56;74771.38;;;-147.06;87.41
54453;BME280;40363;52.270;10.546;2022-08-16T00:42:23;74789.84;;;-147.06;88.30
54453;BME280;40363;52.270;10.546;2022-08-16T00:44:54;74767.25;;;-147.06;87.66
54453;BME280;40363;52.270;10.546;2022-08-16T00:47:22;74775.47;;;-147.06;87.45
54453;BME280;40363;52.270;10.546;2022-08-16T00:49:51;74789.84;;;-147.06;88.56
54453;BME280;40363;52.270;10.546;2022-08-16T00:52:19;74791.91;;;-147.06;87.97
54453;BME280;40363;52.270;10.546;2022-08-16T00:54:45;74802.19;;;-147.06;87.95
54453;BME280;40363;52.270;10.546;2022-08-16T00:57:12;74824.78;;;-147.06;87.33
54453;BME280;40363;52.270;10.546;2022-08-16T00:59:39;74830.94;;;-147.06;88.29
54453;BME280;40363;52.270;10.546;2022-08-16T01:02:08;74826.84;;;-147.06;88.39
54453;BME280;40363;52.270;10.546;2022-08-16T01:04:36;74837.13;;;-147.06;88.73
54453;BME280;40363;52.270;10.546;2022-08-16T01:07:04;74833.00;;;-147.06;89.10
54453;BME280;40363;52.270;10.546;2022-08-16T01:09:37;74869.97;;;-147.06;89.93
54453;BME280;40363;52.270;10.546;2022-08-16T01:12:06;74855.59;;;-147.06;89.94
54453;BME280;40363;52.270;10.546;2022-08-16T01:14:38;74853.53;;;-147.06;90.13
54453;BME280;40363;52.270;10.546;2022-08-16T01:17:06;74882.31;;;-147.06;90.70
54453;BME280;40363;52.270;10.546;2022-08-16T01:19:37;74872.03;;;-147.06;89.78
54453;BME280;40363;52.270;10.546;2022-08-16T01:22:12;74867.94;;;-147.06;89.46
54453;BME280;40363;52.270;10.546;2022-08-16T01:24:45;74855.59;;;-147.06;88.51
54453;BME280;40363;52.270;10.546;2022-08-16T01:27:15;74847.38;;;-147.06;87.83
54453;BME280;40363;52.270;10.546;2022-08-16T01:29:46;74839.16;;;-147.06;87.42
54453;BME280;40363;52.270;10.546;2022-08-16T01:32:15;74853.53;;;-147.06;87.74
54453;BME280;40363;52.270;10.546;2022-08-16T01:34:42;74874.09;;;-147.06;89.23
54453;BME280;40363;52.270;10.546;2022-08-16T01:37:11;74861.75;;;-147.06;89.01
54453;BME280;40363;52.270;10.546;2022-08-16T01:39:38;74865.88;;;-147.06;88.73
54453;BME280;40363;52.270;10.546;2022-08-16T01:42:08;74863.81;;;-147.06;88.67
54453;BME280;40363;52.270;10.546;2022-08-16T01:44:37;74872.03;;;-147.06;87.84
54453;BME280;40363;52.270;10.546;2022-08-16T01:47:04;74874.09;;;-147.06;86.86
54453;BME280;40363;52.270;10.546;2022-08-16T01:49:33;74874.09;;;-147.06;87.28
54453;BME280;40363;52.270;10.546;2022-08-16T01:52:04;74886.41;;;-147.06;88.12
54453;BME280;40363;52.270;10.546;2022-08-16T01:54:31;74890.53;;;-147.06;88.12
54453;BME280;40363;52.270;10.546;2022-08-16T01:56:59;74882.31;;;-147.06;87.89
54453;BME280;40363;52.270;10.546;2022-08-16T01:59:29;74898.75;;;-147.06;87.81
54453;BME280;40363;52.270;10.546;2022-08-16T02:01:56;74921.34;;;-147.06;88.71
54453;BME280;40363;52.270;10.546;2022-08-16T02:04:23;74911.06;;;-147.06;88.26
54453;BME280;40363;52.270;10.546;2022-08-16T02:06:51;74927.50;;;-147.06;88.89
54453;BME280;40363;52.270;10.546;2022-08-16T02:09:19;74935.72;;;-147.06;90.11
54453;BME280;40363;52.270;10.546;2022-08-16T02:11:49;74939.84;;;-147.06;89.42
54453;BME280;40363;52.270;10.546;2022-08-16T02:14:16;74946.00;;;-147.06;89.39
54453;BME280;40363;52.270;10.546;2022-08-16T02:16:45;74913.13;;;-147.06;88.68
54453;BME280;40363;52.270;10.546;2022-08-16T02:19:11;74917.25;;;-147.06;88.30
54453;BME280;40363;52.270;10.546;2022-08-16T02:21:39;74898.75;;;-147.06;88.37
54453;BME280;40363;52.270;10.546;2022-08-16T02:24:06;74898.75;;;-147.06;88.31
54453;BME280;40363;52.270;10.546;2022-08-16T02:26:33;74890.53;;;-147.06;87.81
54453;BME280;40363;52.270;10.546;2022-08-16T02:28:59;74882.31;;;-147.06;86.81
54453;BME280;40363;52.270;10.546;2022-08-16T02:31:26;74880.25;;;-147.06;86.20
54453;BME280;40363;52.270;10.546;2022-08-16T02:33:54;74872.03;;;-147.06;85.90
54453;BME280;40363;52.270;10.546;2022-08-16T02:36:21;74880.25;;;-147.06;84.83
54453;BME280;40363;52.270;10.546;2022-08-16T02:38:48;74865.88;;;-147.06;85.05
54453;BME280;40363;52.270;10.546;2022-08-16T02:41:14;74855.59;;;-147.06;84.14
54453;BME280;40363;52.270;10.546;2022-08-16T02:43:41;74841.22;;;-147.06;84.67
54453;BME280;40363;52.270;10.546;2022-08-16T02:46:08;74847.38;;;-147.06;85.53
54453;BME280;40363;52.270;10.546;2022-08-16T02:48:35;74851.50;;;-147.06;84.73
54453;BME280;40363;52.270;10.546;2022-08-16T02:51:05;74837.13;;;-147.06;84.51
54453;BME280;40363;52.270;10.546;2022-08-16T02:53:33;74845.34;;;-147.06;84.50
54453;BME280;40363;52.270;10.546;2022-08-16T02:56:00;74851.50;;;-147.06;85.75
54453;BME280;40363;52.270;10.546;2022-08-16T02:58:27;74867.94;;;-147.06;84.94
54453;BME280;40363;52.270;10.546;2022-08-16T03:00:54;74872.03;;;-147.06;86.17
54453;BME280;40363;52.270;10.546;2022-08-16T03:03:21;74874.09;;;-147.06;86.37
54453;BME280;40363;52.270;10.546;2022-08-16T03:05:49;74874.09;;;-147.06;87.36
54453;BME280;40363;52.270;10.546;2022-08-16T03:08:19;74890.53;;;-147.06;86.55
54453;BME280;40363;52.270;10.546;2022-08-16T03:10:46;74894.63;;;-147.06;86.97
54453;BME280;40363;52.270;10.546;2022-08-16T03:13:14;74880.25;;;-147.06;85.68
54453;BME280;40363;52.270;10.546;2022-08-16T03:15:41;74884.38;;;-147.06;85.87
54453;BME280;40363;52.270;10.546;2022-08-16T03:18:09;74890.53;;;-147.06;86.32
54453;BME280;40363;52.270;10.546;2022-08-16T03:20:35;74886.41;;;-147.06;86.49
54453;BME280;40363;52.270;10.546;2022-08-16T03:23:03;74898.75;;;-147.06;86.15
54453;BME280;40363;52.270;10.546;2022-08-16T03:25:32;74902.84;;;-147.06;85.52
54453;BME280;40363;52.270;10.546;2022-08-16T03:27:59;74906.97;;;-147.06;85.64
54453;BME280;40363;52.270;10.546;2022-08-16T03:30:29;74915.19;;;-147.06;86.40
54453;BME280;40363;52.270;10.546;2022-08-16T03:32:56;74923.41;;;-147.06;86.29
54453;BME280;40363;52.270;10.546;2022-08-16T03:35:24;74917.25;;;-147.06;86.35
54453;BME280;40363;52.270;10.546;2022-08-16T03:37:54;74923.41;;;-147.06;85.99
54453;BME280;40363;52.270;10.546;2022-08-16T03:40:22;74931.63;;;-147.06;86.16
54453;BME280;40363;52.270;10.546;2022-08-16T03:42:50;74921.34;;;-147.06;85.24
54453;BME280;40363;52.270;10.546;2022-08-16T03:45:17;74927.50;;;-147.06;86.08
54453;BME280;40363;52.270;10.546;2022-08-16T03:47:45;74935.72;;;-147.06;86.99
54453;BME280;40363;52.270;10.546;2022-08-16T03:50:12;74941.91;;;-147.06;86.53
54453;BME280;40363;52.270;10.546;2022-08-16T03:52:40;74943.94;;;-147.06;87.03
54453;BME280;40363;52.270;10.546;2022-08-16T03:55:08;74958.34;;;-147.06;87.13
54453;BME280;40363;52.270;10.546;2022-08-16T03:57:35;74976.81;;;-147.06;87.25
54453;BME280;40363;52.270;10.546;2022-08-16T04:00:06;74985.03;;;-147.06;87.25
54453;BME280;40363;52.270;10.546;2022-08-16T04:02:38;75003.53;;;-147.06;87.71
54453;BME280;40363;52.270;10.546;2022-08-16T04:05:05;75034.34;;;-147.06;88.73
54453;BME280;40363;52.270;10.546;2022-08-16T04:07:32;75042.56;;;-147.06;88.71
54453;BME280;40363;52.270;10.546;2022-08-16T04:09:59;75026.13;;;-147.06;89.01
54453;BME280;40363;52.270;10.546;2022-08-16T04:12:26;75017.91;;;-147.06;88.47
54453;BME280;40363;52.270;10.546;2022-08-16T04:14:53;75017.91;;;-147.06;88.62
54453;BME280;40363;52.270;10.546;2022-08-16T04:17:21;75034.34;;;-147.06;88.17
54453;BME280;40363;52.270;10.546;2022-08-16T04:19:48;75030.25;;;-147.06;88.42
54453;BME280;40363;52.270;10.546;2022-08-16T04:22:14;75022.03;;;-147.06;88.17
54453;BME280;40363;52.270;10.546;2022-08-16T04:24:41;75022.03;;;-147.06;87.92
54453;BME280;40363;52.270;10.546;2022-08-16T04:27:07;75030.25;;;-147.06;87.67
54453;BME280;40363;52.270;10.546;2022-08-16T04:29:34;75042.56;;;-147.06;88.39
54453;BME280;40363;52.270;10.546;2022-08-16T04:32:01;75042.56;;;-147.06;88.27
54453;BME280;40363;52.270;10.546;2022-08-16T04:34:32;75044.63;;;-147.06;89.25
54453;BME280;40363;52.270;10.546;2022-08-16T04:37:02;75046.69;;;-147.06;89.69
54453;BME280;40363;52.270;10.546;2022-08-16T04:39:30;75026.13;;;-147.06;88.66
54453;BME280;40363;52.270;10.546;2022-08-16T04:41:58;75009.69;;;-147.06;88.25
54453;BME280;40363;52.270;10.546;2022-08-16T04:44:25;75015.84;;;-147.06;87.77
54453;BME280;40363;52.270;10.546;2022-08-16T04:46:52;75030.25;;;-147.06;87.82
54453;BME280;40363;52.270;10.546;2022-08-16T04:49:20;75024.06;;;-147.06;87.67
54453;BME280;40363;52.270;10.546;2022-08-16T04:51:48;75026.13;;;-147.06;87.62
54453;BME280;40363;52.270;10.546;2022-08-16T04:54:16;75038.47;;;-147.06;88.70
54453;BME280;40363;52.270;10.546;2022-08-16T04:56:43;75044.63;;;-147.06;88.65
54453;BME280;40363;52.270;10.546;2022-08-16T04:59:10;75026.13;;;-147.06;87.74
54453;BME280;40363;52.270;10.546;2022-08-16T05:01:37;75024.06;;;-147.06;86.80
54453;BME280;40363;52.270;10.546;2022-08-16T05:04:04;75017.91;;;-147.06;87.75
54453;BME280;40363;52.270;10.546;2022-08-16T05:06:31;75009.69;;;-147.06;86.43
54453;BME280;40363;52.270;10.546;2022-08-16T05:08:59;74991.19;;;-147.06;86.44
54453;BME280;40363;52.270;10.546;2022-08-16T05:11:26;74987.09;;;-147.06;82.94
54453;BME280;40363;52.270;10.546;2022-08-16T05:13:54;74972.72;;;-147.06;84.26
54453;BME280;40363;52.270;10.546;2022-08-16T05:16:24;74972.72;;;-147.06;84.92
54453;BME280;40363;52.270;10.546;2022-08-16T05:18:53;74966.56;;;-147.06;85.16
54453;BME280;40363;52.270;10.546;2022-08-16T05:21:20;74958.34;;;-147.06;84.73
54453;BME280;40363;52.270;10.546;2022-08-16T05:23:49;74948.06;;;-147.06;84.46
54453;BME280;40363;52.270;10.546;2022-08-16T05:26:18;74931.63;;;-147.06;84.32
54453;BME280;40363;52.270;10.546;2022-08-16T05:28:44;74921.34;;;-147.06;82.81
54453;BME280;40363;52.270;10.546;2022-08-16T05:31:11;74923.41;;;-147.06;83.07
54453;BME280;40363;52.270;10.546;2022-08-16T05:33:38;74915.19;;;-147.06;80.89
54453;BME280;40363;52.270;10.546;2022-08-16T05:36:05;74890.53;;;-147.06;78.06
54453;BME280;40363;52.270;10.546;2022-08-16T05:38:32;74874.09;;;-147.06;80.66
54453;BME280;40363;52.270;10.546;2022-08-16T05:41:01;74880.25;;;-147.06;76.64
54453;BME280;40363;52.270;10.546;2022-08-16T05:43:29;74896.69;;;-147.06;76.83
54453;BME280;40363;52.270;10.546;2022-08-16T05:45:58;74874.09;;;-147.06;76.91
54453;BME280;40363;52.270;10.546;2022-08-16T05:48:24;74865.88;;;-147.06;75.55
54453;BME280;40363;52.270;10.546;2022-08-16T05:50:51;74845.34;;;-147.06;74.99
54453;BME280;40363;52.270;10.546;2022-08-16T05:53:20;74849.44;;;-147.06;74.45
54453;BME280;40363;52.270;10.546;2022-08-16T05:55:48;74839.16;;;-147.06;73.55
54453;BME280;40363;52.270;10.546;2022-08-16T05:58:15;74820.69;;;-147.06;72.73
54453;BME280;40363;52.270;10.546;2022-08-16T06:00:43;74820.69;;;-147.06;72.75
54453;BME280;40363;52.270;10.546;2022-08-16T06:03:10;74798.06;;;-147.06;70.45
54453;BME280;40363;52.270;10.546;2022-08-16T06:05:37;74781.63;;;-147.06;69.42
54453;BME280;40363;52.270;10.546;2022-08-16T06:08:04;74759.03;;;-147.06;68.45
54453;BME280;40363;52.270;10.546;2022-08-16T06:10:31;74763.16;;;-147.06;68.97
54453;BME280;40363;52.270;10.546;2022-08-16T06:13:00;74763.16;;;-147.06;68.27
54453;BME280;40363;52.270;10.546;2022-08-16T06:15:27;74796.03;;;-147.06;68.67
54453;BME280;40363;52.270;10.546;2022-08-16T06:17:55;74791.91;;;-147.06;68.74
54453;BME280;40363;52.270;10.546;2022-08-16T06:20:26;74783.69;;;-147.06;68.43
54453;BME280;40363;52.270;10.546;2022-08-16T06:22:55;74730.28;;;-147.06;68.95
54453;BME280;40363;52.270;10.546;2022-08-16T06:25:22;74687.13;;;-147.06;67.12
54453;BME280;40363;52.270;10.546;2022-08-16T06:27:50;74676.88;;;-147.06;65.99
54453;BME280;40363;52.270;10.546;2022-08-16T06:30:20;74635.78;;;-147.06;65.01
54453;BME280;40363;52.270;10.546;2022-08-16T06:32:47;74533.06;;;-147.06;63.02
54453;BME280;40363;52.270;10.546;2022-08-16T06:35:15;74446.78;;;-147.06;60.46
54453;BME280;40363;52.270;10.546;2022-08-16T06:37:42;74356.38;;;-147.06;58.02
54453;BME280;40363;52.270;10.546;2022-08-16T06:40:10;74327.63;;;-147.06;54.40
54453;BME280;40363;52.270;10.546;2022-08-16T06:42:37;74321.47;;;-147.06;54.61
54453;BME280;40363;52.270;10.546;2022-08-16T06:45:06;74253.66;;;-147.06;53.69
54453;BME280;40363;52.270;10.546;2022-08-16T06:47:34;74169.44;;;-147.06;51.63
54453;BME280;40363;52.270;10.546;2022-08-16T06:50:01;74066.75;;;-147.06;49.51
54453;BME280;40363;52.270;10.546;2022-08-16T06:52:29;74015.38;;;-147.06;47.48
54453;BME280;40363;52.270;10.546;2022-08-16T06:54:57;73961.97;;;-147.06;46.33
54453;BME280;40363;52.270;10.546;2022-08-16T06:57:24;73925.00;;;-147.06;45.58
54453;BME280;40363;52.270;10.546;2022-08-16T06:59:50;74052.34;;;-147.06;46.67
54453;BME280;40363;52.270;10.546;2022-08-16T07:02:17;73992.78;;;-147.06;45.93
54453;BME280;40363;52.270;10.546;2022-08-16T07:04:44;73918.84;;;-147.06;44.95
54453;BME280;40363;52.270;10.546;2022-08-16T07:07:10;73900.34;;;-147.06;44.59
54453;BME280;40363;52.270;10.546;2022-08-16T07:09:39;73914.75;;;-147.06;44.33
54453;BME280;40363;52.270;10.546;2022-08-16T07:12:06;73809.97;;;-147.06;43.28
54453;BME280;40363;52.270;10.546;2022-08-16T07:14:33;73694.97;;;-147.06;41.48
54453;BME280;40363;52.270;10.546;2022-08-16T07:17:00;73621.03;;;-147.06;40.31
54453;BME280;40363;52.270;10.546;2022-08-16T07:19:28;73719.59;;;-147.06;41.51
54453;BME280;40363;52.270;10.546;2022-08-16T07:21:56;73678.53;;;-147.06;40.55
54453;BME280;40363;52.270;10.546;2022-08-16T07:24:26;73623.06;;;-147.06;40.13
54453;BME280;40363;52.270;10.546;2022-08-16T07:26:55;73604.59;;;-147.06;40.12
54453;BME280;40363;52.270;10.546;2022-08-16T07:29:22;73596.38;;;-147.06;39.09
54453;BME280;40363;52.270;10.546;2022-08-16T07:31:48;73483.41;;;-147.06;38.08
54453;BME280;40363;52.270;10.546;2022-08-16T07:34:15;73512.16;;;-147.06;37.41
54453;BME280;40363;52.270;10.546;2022-08-16T07:36:42;73483.41;;;-147.06;37.03
54453;BME280;40363;52.270;10.546;2022-08-16T07:39:09;73549.13;;;-147.06;37.71
54453;BME280;40363;52.270;10.546;2022-08-16T07:41:36;73469.03;;;-147.06;36.67
54453;BME280;40363;52.270;10.546;2022-08-16T07:44:04;73524.47;;;-147.06;37.11
54453;BME280;40363;52.270;10.546;2022-08-16T07:46:31;73489.56;;;-147.06;36.72
54453;BME280;40363;52.270;10.546;2022-08-16T07:48:58;73499.84;;;-147.06;36.48
54453;BME280;40363;52.270;10.546;2022-08-16T07:51:25;73495.72;;;-147.06;36.29
54453;BME280;40363;52.270;10.546;2022-08-16T07:53:54;73325.25;;;-147.06;34.69
54453;BME280;40363;52.270;10.546;2022-08-16T07:56:24;73427.94;;;-147.06;35.12
54453;BME280;40363;52.270;10.546;2022-08-16T07:58:54;73343.75;;;-147.06;34.23
54453;BME280;40363;52.270;10.546;2022-08-16T08:01:23;73354.03;;;-147.06;33.90
54453;BME280;40363;52.270;10.546;2022-08-16T08:03:50;73421.78;;;-147.06;34.16
54453;BME280;40363;52.270;10.546;2022-08-16T08:06:22;73405.38;;;-147.06;34.24
54453;BME280;40363;52.270;10.546;2022-08-16T08:08:49;73399.19;;;-147.06;33.83
54453;BME280;40363;52.270;10.546;2022-08-16T08:11:19;73335.53;;;-147.06;33.59
54453;BME280;40363;52.270;10.546;2022-08-16T08:13:47;73458.75;;;-147.06;34.55
54453;BME280;40363;52.270;10.546;2022-08-16T08:16:22;73481.34;;;-147.06;34.82
54453;BME280;40363;52.270;10.546;2022-08-16T08:18:50;73460.81;;;-147.06;34.66
54453;BME280;40363;52.270;10.546;2022-08-16T08:21:21;73374.56;;;-147.06;34.02
54453;BME280;40363;52.270;10.546;2022-08-16T08:23:49;73436.16;;;-147.06;34.38
54453;BME280;40363;52.270;10.546;2022-08-16T08:26:17;73563.50;;;-147.06;36.04
54453;BME280;40363;52.270;10.546;2022-08-16T08:28:44;73497.78;;;-147.06;35.30
54453;BME280;40363;52.270;10.546;2022-08-16T08:31:11;73510.09;;;-147.06;35.04
54453;BME280;40363;52.270;10.546;2022-08-16T08:33:39;73542.97;;;-147.06;35.29
54453;BME280;40363;52.270;10.546;2022-08-16T08:36:09;73510.09;;;-147.06;35.31
54453;BME280;40363;52.270;10.546;2022-08-16T08:38:40;73573.78;;;-147.06;35.52
54453;BME280;40363;52.270;10.546;2022-08-16T08:41:08;73536.81;;;-147.06;35.09
54453;BME280;40363;52.270;10.546;2022-08-16T08:43:35;73518.31;;;-147.06;35.03
54453;BME280;40363;52.270;10.546;2022-08-16T08:46:02;73512.16;;;-147.06;34.42
54453;BME280;40363;52.270;10.546;2022-08-16T08:48:29;73629.22;;;-147.06;36.05
54453;BME280;40363;52.270;10.546;2022-08-16T08:50:57;73473.13;;;-147.06;34.32
54453;BME280;40363;52.270;10.546;2022-08-16T08:53:24;73557.34;;;-147.06;35.04
54453;BME280;40363;52.270;10.546;2022-08-16T08:55:51;73542.97;;;-147.06;35.12
54453;BME280;40363;52.270;10.546;2022-08-16T08:58:18;73551.19;;;-147.06;34.98
54453;BME280;40363;52.270;10.546;2022-08-16T09:00:45;73551.19;;;-147.06;34.80
54453;BME280;40363;52.270;10.546;2022-08-16T09:03:12;73483.41;;;-147.06;34.34
54453;BME280;40363;52.270;10.546;2022-08-16T09:05:43;73510.09;;;-147.06;34.30
54453;BME280;40363;52.270;10.546;2022-08-16T09:08:11;73508.06;;;-147.06;34.45
54453;BME280;40363;52.270;10.546;2022-08-16T09:10:38;73520.38;;;-147.06;34.95
54453;BME280;40363;52.270;10.546;2022-08-16T09:13:05;73503.94;;;-147.06;34.56
54453;BME280;40363;52.270;10.546;2022-08-16T09:15:32;73542.97;;;-147.06;34.64
54453;BME280;40363;52.270;10.546;2022-08-16T09:18:00;73506.00;;;-147.06;34.45
54453;BME280;40363;52.270;10.546;2022-08-16T09:20:29;73520.38;;;-147.06;35.33
54453;BME280;40363;52.270;10.546;2022-08-16T09:22:57;73534.75;;;-147.06;34.75
54453;BME280;40363;52.270;10.546;2022-08-16T09:25:30;73555.28;;;-147.06;35.01
54453;BME280;40363;52.270;10.546;2022-08-16T09:27:59;73501.91;;;-147.06;34.26
54453;BME280;40363;52.270;10.546;2022-08-16T09:30:26;73592.25;;;-147.06;34.90
54453;BME280;40363;52.270;10.546;2022-08-16T09:32:53;73547.06;;;-147.06;34.45
54453;BME280;40363;52.270;10.546;2022-08-16T09:35:20;73723.72;;;-147.06;36.71
54453;BME280;40363;52.270;10.546;2022-08-16T09:37:47;73637.44;;;-147.06;36.18
54453;BME280;40363;52.270;10.546;2022-08-16T09:40:14;73542.97;;;-147.06;35.47
54453;BME280;40363;52.270;10.546;2022-08-16T09:42:42;73534.75;;;-147.06;34.46
54453;BME280;40363;52.270;10.546;2022-08-16T09:45:09;73553.25;;;-147.06;35.45
54453;BME280;40363;52.270;10.546;2022-08-16T09:47:37;73530.66;;;-147.06;35.25
54453;BME280;40363;52.270;10.546;2022-08-16T09:50:06;73538.88;;;-147.06;34.85
54453;BME280;40363;52.270;10.546;2022-08-16T09:52:33;73547.06;;;-147.06;34.77
54453;BME280;40363;52.270;10.546;2022-08-16T09:55:03;73534.75;;;-147.06;34.21
54453;BME280;40363;52.270;10.546;2022-08-16T09:57:30;73561.47;;;-147.06;34.11
54453;BME280;40363;52.270;10.546;2022-08-16T09:59:58;73598.44;;;-147.06;34.66
54453;BME280;40363;52.270;10.546;2022-08-16T10:02:25;73584.03;;;-147.06;34.74
54453;BME280;40363;52.270;10.546;2022-08-16T10:04:52;73575.84;;;-147.06;34.13
54453;BME280;40363;52.270;10.546;2022-08-16T10:07:19;73497.78;;;-147.06;34.07
54453;BME280;40363;52.270;10.546;2022-08-16T10:09:45;73440.28;;;-147.06;33.50
54453;BME280;40363;52.270;10.546;2022-08-16T10:12:12;73452.59;;;-147.06;33.17
54453;BME280;40363;52.270;10.546;2022-08-16T10:14:58;73401.25;;;-147.06;32.88
54453;BME280;40363;52.270;10.546;2022-08-16T10:17:24;73464.91;;;-147.06;32.68
54453;BME280;40363;52.270;10.546;2022-08-16T10:19:52;73495.72;;;-147.06;33.25
54453;BME280;40363;52.270;10.546;2022-08-16T10:22:19;73571.72;;;-147.06;33.78
54453;BME280;40363;52.270;10.546;2022-08-16T10:24:46;73670.31;;;-147.06;34.13
54453;BME280;40363;52.270;10.546;2022-08-16T10:27:13;73551.19;;;-147.06;33.54
54453;BME280;40363;52.270;10.546;2022-08-16T10:29:40;73573.78;;;-147.06;34.19
54453;BME280;40363;52.270;10.546;2022-08-16T10:32:09;73584.03;;;-147.06;33.64
54453;BME280;40363;52.270;10.546;2022-08-16T10:34:36;73534.75;;;-147.06;33.43
54453;BME280;40363;52.270;10.546;2022-08-16T10:37:03;73497.78;;;-147.06;33.14
54453;BME280;40363;52.270;10.546;2022-08-16T10:39:30;73528.59;;;-147.06;33.17
54453;BME280;40363;52.270;10.546;2022-08-16T10:41:57;73631.28;;;-147.06;34.43
54453;BME280;40363;52.270;10.546;2022-08-16T10:44:24;73637.44;;;-147.06;34.69
54453;BME280;40363;52.270;10.546;2022-08-16T10:46:50;73569.66;;;-147.06;34.00
54453;BME280;40363;52.270;10.546;2022-08-16T10:49:19;73526.53;;;-147.06;32.96
54453;BME280;40363;52.270;10.546;2022-08-16T10:51:46;73518.31;;;-147.06;33.72
54453;BME280;40363;52.270;10.546;2022-08-16T10:54:13;73487.50;;;-147.06;32.67
54453;BME280;40363;52.270;10.546;2022-08-16T10:56:43;73637.44;;;-147.06;34.15
54453;BME280;40363;52.270;10.546;2022-08-16T10:59:11;73694.97;;;-147.06;34.24
54453;BME280;40363;52.270;10.546;2022-08-16T11:01:38;73750.41;;;-147.06;35.01
54453;BME280;40363;52.270;10.546;2022-08-16T11:04:05;73803.81;;;-147.06;35.84
54453;BME280;40363;52.270;10.546;2022-08-16T11:06:33;73818.19;;;-147.06;35.96
54453;BME280;40363;52.270;10.546;2022-08-16T11:09:00;73838.75;;;-147.06;36.05
54453;BME280;40363;52.270;10.546;2022-08-16T11:11:27;73859.28;;;-147.06;36.12
54453;BME280;40363;52.270;10.546;2022-08-16T11:13:54;73861.34;;;-147.06;36.00
54453;BME280;40363;52.270;10.546;2022-08-16T11:16:21;73830.53;;;-147.06;35.57
54453;BME280;40363;52.270;10.546;2022-08-16T11:18:48;73809.97;;;-147.06;36.03
54453;BME280;40363;52.270;10.546;2022-08-16T11:21:15;73781.22;;;-147.06;35.72
54453;BME280;40363;52.270;10.546;2022-08-16T11:23:46;73787.38;;;-147.06;36.17
54453;BME280;40363;52.270;10.546;2022-08-16T11:26:12;73773.00;;;-147.06;36.20
54453;BME280;40363;52.270;10.546;2022-08-16T11:28:42;73764.78;;;-147.06;36.49
54453;BME280;40363;52.270;10.546;2022-08-16T11:31:09;73773.00;;;-147.06;35.94
54453;BME280;40363;52.270;10.546;2022-08-16T11:33:36;73752.47;;;-147.06;35.73
54453;BME280;40363;52.270;10.546;2022-08-16T11:36:03;73754.53;;;-147.06;35.81
54453;BME280;40363;52.270;10.546;2022-08-16T11:38:32;73773.00;;;-147.06;35.95
54453;BME280;40363;52.270;10.546;2022-08-16T11:43:47;73760.69;;;-147.06;35.89
54453;BME280;40363;52.270;10.546;2022-08-16T11:46:22;73783.28;;;-147.06;36.03
54453;BME280;40363;52.270;10.546;2022-08-16T11:48:52;73803.81;;;-147.06;35.59
54453;BME280;40363;52.270;10.546;2022-08-16T11:51:31;73818.19;;;-147.06;36.26
54453;BME280;40363;52.270;10.546;2022-08-16T11:54:01;73834.63;;;-147.06;35.90
54453;BME280;40363;52.270;10.546;2022-08-16T11:56:37;73869.53;;;-147.06;36.14
54453;BME280;40363;52.270;10.546;2022-08-16T11:59:13;73892.13;;;-147.06;36.69
54453;BME280;40363;52.270;10.546;2022-08-16T12:02:01;73888.03;;;-147.06;36.42
54453;BME280;40363;52.270;10.546;2022-08-16T12:04:37;73892.13;;;-147.06;37.09
54453;BME280;40363;52.270;10.546;2022-08-16T12:07:15;73937.34;;;-147.06;36.67
54453;BME280;40363;52.270;10.546;2022-08-16T12:09:42;73916.78;;;-147.06;36.75
54453;BME280;40363;52.270;10.546;2022-08-16T12:12:09;73890.09;;;-147.06;37.01
54453;BME280;40363;52.270;10.546;2022-08-16T12:15:03;73894.19;;;-147.06;36.91
54453;BME280;40363;52.270;10.546;2022-08-16T12:17:37;73888.03;;;-147.06;36.58
54453;BME280;40363;52.270;10.546;2022-08-16T12:20:20;73869.53;;;-147.06;36.26
54453;BME280;40363;52.270;10.546;2022-08-16T12:22:55;73834.63;;;-147.06;35.52
54453;BME280;40363;52.270;10.546;2022-08-16T12:25:32;73828.47;;;-147.06;35.37
54453;BME280;40363;52.270;10.546;2022-08-16T12:28:10;73814.09;;;-147.06;35.52
54453;BME280;40363;52.270;10.546;2022-08-16T12:30:55;73834.63;;;-147.06;35.37
54453;BME280;40363;52.270;10.546;2022-08-16T12:33:26;73842.84;;;-147.06;35.60
54453;BME280;40363;52.270;10.546;2022-08-16T12:36:11;73842.84;;;-147.06;35.96
54453;BME280;40363;52.270;10.546;2022-08-16T12:38:53;73842.84;;;-147.06;36.16